Time;durP1;ratioP1;P1;durP2;ratioP2;P2;SDS_P1;SDS_P2;PMS_P1;PMS_P2;Temp;Humidity;BMP_temperature;BMP_pressure;BME280_temperature;BME280_humidity;BME280_pressure;Samples;Min_cycle;Max_cycle;Signal;HPM_P1;HPM_P2
2021/11/21 00:00:45;;;;;;;0.40;0.30;;;;;;;11.58;66.79;99807.04;101266;1318;140020;-74
2021/11/21 00:03:21;;;;;;;0.40;0.30;;;;;;;11.57;66.82;99801.38;101283;1318;149729;-74
2021/11/21 00:05:49;;;;;;;0.40;0.30;;;;;;;11.58;66.75;99801.67;101336;1318;138598;-74
2021/11/21 00:08:17;;;;;;;0.40;0.30;;;;;;;11.56;66.54;99802.11;101182;1321;108963;-75
2021/11/21 00:10:45;;;;;;;0.40;0.30;;;;;;;11.57;66.60;99803.16;101433;1318;107591;-75
2021/11/21 00:13:13;;;;;;;0.40;0.30;;;;;;;11.55;66.49;99801.60;101244;1318;140064;-75
2021/11/21 00:15:42;;;;;;;0.40;0.30;;;;;;;11.52;66.38;99794.61;101336;1322;96242;-74
2021/11/21 00:18:11;;;;;;;0.40;0.30;;;;;;;11.47;66.33;99788.79;101297;1318;138381;-74
2021/11/21 00:20:40;;;;;;;0.40;0.30;;;;;;;11.44;66.53;99782.84;101458;1318;109972;-74
2021/11/21 00:23:08;;;;;;;0.40;0.30;;;;;;;11.44;66.53;99783.21;101372;1319;95358;-75
2021/11/21 00:25:37;;;;;;;0.40;0.30;;;;;;;11.45;66.41;99781.39;101185;1319;138326;-74
2021/11/21 00:28:05;;;;;;;0.40;0.30;;;;;;;11.44;66.31;99779.65;101343;1318;109149;-76
2021/11/21 00:30:33;;;;;;;0.40;0.30;;;;;;;11.46;66.43;99778.86;101140;1315;139381;-76
2021/11/21 00:33:01;;;;;;;0.40;0.30;;;;;;;11.48;66.35;99781.27;101392;1318;96067;-76
2021/11/21 00:35:29;;;;;;;0.40;0.30;;;;;;;11.54;66.17;99783.15;101148;1318;95373;-75
2021/11/21 00:37:58;;;;;;;0.40;0.30;;;;;;;11.50;65.74;99776.71;101276;1318;138999;-75
2021/11/21 00:40:26;;;;;;;0.40;0.30;;;;;;;11.48;65.96;99777.17;101334;1318;109916;-73
2021/11/21 00:42:57;;;;;;;0.40;0.30;;;;;;;11.43;66.03;99775.95;101297;1318;138046;-74
2021/11/21 00:45:26;;;;;;;0.40;0.30;;;;;;;11.46;65.92;99776.73;101342;1319;95594;-74
2021/11/21 00:47:55;;;;;;;0.40;0.30;;;;;;;11.45;65.94;99777.46;101443;1318;139117;-76
2021/11/21 00:50:28;;;;;;;0.40;0.30;;;;;;;11.50;65.80;99776.75;101393;1318;109767;-75
2021/11/21 00:53:03;;;;;;;0.40;0.30;;;;;;;11.51;65.73;99773.86;101488;1322;95431;-75
2021/11/21 00:58:04;;;;;;;0.40;0.30;;;;;;;11.55;65.75;99771.39;101318;1318;109046;-75
2021/11/21 01:00:33;;;;;;;0.40;0.30;;;;;;;11.53;65.62;99770.55;101155;1318;138269;-74
2021/11/21 01:03:02;;;;;;;0.40;0.30;;;;;;;11.43;65.68;99765.11;101452;1318;95450;-74
2021/11/21 01:05:29;;;;;;;0.40;0.30;;;;;;;11.40;65.95;99767.21;101367;1318;95278;-76
2021/11/21 01:07:57;;;;;;;0.40;0.30;;;;;;;11.42;65.97;99772.27;101224;1318;139024;-76
2021/11/21 01:10:28;;;;;;;0.40;0.30;;;;;;;11.47;65.85;99769.94;101239;1320;110045;-76
2021/11/21 01:12:56;;;;;;;0.40;0.30;;;;;;;11.48;66.09;99762.39;101212;1319;138092;-74
2021/11/21 01:15:24;;;;;;;0.40;0.30;;;;;;;11.48;66.08;99761.70;101313;1318;95275;-75
2021/11/21 01:17:54;;;;;;;0.40;0.30;;;;;;;11.51;65.97;99752.86;101167;1324;138331;-74
2021/11/21 01:20:24;;;;;;;0.40;0.30;;;;;;;11.49;65.94;99749.55;101426;1318;109751;-75
2021/11/21 01:22:52;;;;;;;0.40;0.30;;;;;;;11.49;65.90;99752.41;101274;1318;96561;-76
2021/11/21 01:25:21;;;;;;;0.40;0.30;;;;;;;11.45;65.94;99753.48;101266;1318;139263;-75
2021/11/21 01:27:49;;;;;;;0.40;0.30;;;;;;;11.41;66.17;99750.09;101291;1316;109011;-75
2021/11/21 01:30:21;;;;;;;0.40;0.30;;;;;;;11.41;66.16;99743.51;101160;1319;140955;-75
2021/11/21 01:32:50;;;;;;;0.40;0.30;;;;;;;11.46;66.16;99743.29;101243;1323;95286;-74
2021/11/21 01:35:18;;;;;;;0.40;0.30;;;;;;;11.46;65.89;99742.73;101314;1318;95299;-75
2021/11/21 01:37:46;;;;;;;0.40;0.30;;;;;;;11.42;66.01;99738.67;101224;1318;139756;-74
2021/11/21 01:40:15;;;;;;;0.40;0.30;;;;;;;11.35;66.17;99733.27;101238;1318;109849;-76
2021/11/21 01:42:46;;;;;;;0.40;0.30;;;;;;;11.39;66.22;99728.83;101119;1318;138327;-73
2021/11/21 01:45:14;;;;;;;0.40;0.30;;;;;;;11.38;65.97;99721.77;101362;1316;95279;-75
2021/11/21 01:47:44;;;;;;;0.40;0.30;;;;;;;11.31;66.18;99714.92;101317;1318;109129;-75
2021/11/21 01:50:18;;;;;;;0.40;0.30;;;;;;;11.31;66.27;99713.33;101238;1318;138687;-76
2021/11/21 01:52:46;;;;;;;0.40;0.30;;;;;;;11.36;66.12;99706.89;101348;1318;95792;-75
2021/11/21 01:55:14;;;;;;;0.40;0.30;;;;;;;11.36;66.10;99706.89;101126;1323;138065;-75
2021/11/21 01:57:42;;;;;;;0.40;0.30;;;;;;;11.33;66.02;99707.39;101303;1318;108375;-76
2021/11/21 02:00:12;;;;;;;0.40;0.30;;;;;;;11.34;66.06;99703.06;101211;1319;139921;-76
2021/11/21 02:02:40;;;;;;;0.40;0.30;;;;;;;11.37;65.95;99701.19;101251;1318;95284;-75
2021/11/21 02:05:10;;;;;;;0.40;0.30;;;;;;;11.33;65.80;99697.26;101258;1320;95867;-75
2021/11/21 02:07:41;;;;;;;0.40;0.30;;;;;;;11.26;65.89;99695.58;101027;1321;139761;-74
2021/11/21 02:10:12;;;;;;;0.40;0.30;;;;;;;11.30;66.08;99692.05;101275;1320;109791;-75
2021/11/21 02:12:40;;;;;;;0.40;0.30;;;;;;;11.33;65.89;99685.72;101213;1318;140676;-76
2021/11/21 02:15:11;;;;;;;0.40;0.30;;;;;;;11.34;65.77;99682.30;101224;1325;96502;-76
2021/11/21 02:17:39;;;;;;;0.40;0.30;;;;;;;11.28;65.72;99682.38;101365;1318;107933;-76
2021/11/21 02:20:09;;;;;;;0.40;0.30;;;;;;;11.23;65.80;99682.94;101040;1319;138639;-75
2021/11/21 02:22:40;;;;;;;0.40;0.30;;;;;;;11.19;65.92;99680.40;101283;1318;96461;-76
2021/11/21 02:25:09;;;;;;;0.40;0.30;;;;;;;11.25;66.09;99674.68;101142;1321;139140;-77
2021/11/21 02:27:38;;;;;;;0.40;0.30;;;;;;;11.26;65.95;99668.92;101205;1320;107981;-75
2021/11/21 02:30:08;;;;;;;0.40;0.30;;;;;;;11.26;65.90;99667.70;101238;1318;139376;-75
2021/11/21 02:32:44;;;;;;;0.40;0.30;;;;;;;11.29;65.92;99664.04;101203;1321;95694;-74
2021/11/21 02:35:12;;;;;;;0.40;0.40;;;;;;;11.28;65.72;99665.65;101533;1318;95691;-75
2021/11/21 02:37:40;;;;;;;0.40;0.30;;;;;;;11.25;65.73;99659.72;101126;1324;139521;-75
2021/11/21 02:40:10;;;;;;;0.40;0.30;;;;;;;11.22;65.81;99659.67;101310;1318;108681;-75
2021/11/21 02:42:38;;;;;;;0.40;0.30;;;;;;;11.21;65.98;99658.65;101169;1322;139161;-75
2021/11/21 02:45:12;;;;;;;0.40;0.30;;;;;;;11.18;65.68;99656.81;101319;1318;95310;-74
2021/11/21 02:47:40;;;;;;;0.40;0.30;;;;;;;11.21;65.78;99659.88;101196;1321;108396;-75
2021/11/21 02:50:18;;;;;;;0.40;0.30;;;;;;;11.23;65.68;99656.79;101123;1318;138967;-75
2021/11/21 02:52:46;;;;;;;0.40;0.30;;;;;;;11.20;65.39;99659.20;101203;1318;95293;-75
2021/11/21 02:55:16;;;;;;;0.40;0.30;;;;;;;11.18;65.49;99652.37;101159;1318;139845;-75
2021/11/21 02:57:44;;;;;;;0.40;0.30;;;;;;;11.15;65.53;99648.94;101670;1322;109152;-75
2021/11/21 03:00:15;;;;;;;0.40;0.30;;;;;;;11.14;65.79;99645.43;101202;1320;139920;-76
2021/11/21 03:02:44;;;;;;;0.40;0.30;;;;;;;11.18;65.54;99645.09;101298;1323;95700;-76
2021/11/21 03:05:13;;;;;;;0.40;0.30;;;;;;;11.14;65.43;99637.96;101243;1318;95470;-75
2021/11/21 03:07:42;;;;;;;0.40;0.30;;;;;;;11.11;65.46;99637.91;101168;1321;139465;-76
2021/11/21 03:10:12;;;;;;;0.40;0.30;;;;;;;11.07;65.61;99633.29;101265;1318;109033;-75
2021/11/21 03:12:40;;;;;;;0.40;0.30;;;;;;;11.02;65.60;99631.17;101180;1318;139843;-75
2021/11/21 03:15:08;;;;;;;0.40;0.30;;;;;;;11.01;65.55;99629.45;101310;1318;95286;-76
2021/11/21 03:17:36;;;;;;;0.40;0.30;;;;;;;11.01;65.63;99623.92;101326;1321;108882;-76
2021/11/21 03:20:05;;;;;;;0.40;0.30;;;;;;;11.03;65.87;99626.14;101163;1319;138651;-76
2021/11/21 03:22:33;;;;;;;0.40;0.30;;;;;;;11.06;65.68;99626.55;101353;1319;95272;-76
2021/11/21 03:25:00;;;;;;;0.40;0.30;;;;;;;11.04;65.62;99619.70;101248;1319;138457;-75
2021/11/21 03:27:28;;;;;;;0.40;0.30;;;;;;;11.02;65.85;99623.13;101257;1318;108977;-77
2021/11/21 03:29:56;;;;;;;0.40;0.30;;;;;;;10.96;66.15;99622.16;101262;1318;140685;-75
2021/11/21 03:32:24;;;;;;;0.40;0.40;;;;;;;10.88;66.36;99613.23;101278;1319;95288;-76
2021/11/21 03:34:52;;;;;;;0.40;0.40;;;;;;;10.91;66.37;99607.98;101176;1322;95674;-75
2021/11/21 03:37:20;;;;;;;0.40;0.30;;;;;;;10.93;66.30;99604.71;101185;1319;139398;-76
2021/11/21 03:39:48;;;;;;;0.40;0.30;;;;;;;10.95;66.06;99604.82;101144;1324;108835;-75
2021/11/21 03:42:17;;;;;;;0.40;0.30;;;;;;;10.94;66.07;99604.65;101298;1318;138498;-75
2021/11/21 03:44:45;;;;;;;0.40;0.30;;;;;;;10.99;65.96;99602.36;101171;1317;95944;-75
2021/11/21 03:47:13;;;;;;;0.40;0.30;;;;;;;11.05;65.70;99601.55;101294;1318;108296;-76
2021/11/21 03:49:41;;;;;;;0.40;0.30;;;;;;;11.06;65.47;99603.30;101218;1318;143113;-75
2021/11/21 03:52:09;;;;;;;0.40;0.30;;;;;;;11.08;65.28;99595.23;101415;1319;97137;-75
2021/11/21 03:54:37;;;;;;;0.40;0.30;;;;;;;11.06;65.21;99594.05;101185;1320;140152;-75
2021/11/21 03:57:06;;;;;;;0.40;0.30;;;;;;;11.08;65.04;99593.09;101260;1324;106523;-75
2021/11/21 03:59:34;;;;;;;0.40;0.30;;;;;;;11.08;64.96;99592.89;101319;1320;108802;-76
2021/11/21 04:02:03;;;;;;;0.40;0.30;;;;;;;11.02;64.66;99594.38;101271;1318;139594;-75
2021/11/21 04:04:32;;;;;;;0.40;0.40;;;;;;;10.92;64.86;99593.21;101363;1320;95295;-76
2021/11/21 04:07:01;;;;;;;0.40;0.40;;;;;;;10.95;65.01;99591.86;101139;1320;140523;-75
2021/11/21 04:09:28;;;;;;;0.40;0.40;;;;;;;10.97;64.69;99589.98;101302;1320;109839;-75
2021/11/21 04:11:56;;;;;;;0.40;0.30;;;;;;;10.93;64.51;99592.67;101289;1319;138631;-74
2021/11/21 04:14:25;;;;;;;0.40;0.30;;;;;;;10.92;64.75;99592.14;101177;1322;95269;-75
2021/11/21 04:16:52;;;;;;;0.40;0.30;;;;;;;10.91;64.68;99589.89;101316;1320;108688;-74
2021/11/21 04:19:20;;;;;;;0.40;0.30;;;;;;;10.85;64.50;99585.31;101290;1321;139471;-75
2021/11/21 04:21:48;;;;;;;0.40;0.30;;;;;;;10.81;64.53;99583.16;101270;1318;96034;-76
2021/11/21 04:24:16;;;;;;;0.40;0.30;;;;;;;10.78;64.69;99584.37;101133;1318;138830;-76
2021/11/21 04:26:44;;;;;;;0.40;0.40;;;;;;;10.75;64.91;99585.38;101341;1319;107478;-73
2021/11/21 04:29:12;;;;;;;0.40;0.40;;;;;;;10.79;64.65;99580.79;101158;1319;109745;-74
2021/11/21 04:31:40;;;;;;;0.40;0.30;;;;;;;10.77;64.48;99578.54;101146;1320;139407;-75
2021/11/21 04:34:08;;;;;;;0.40;0.30;;;;;;;10.75;64.40;99577.41;101302;1324;96923;-75
2021/11/21 04:36:36;;;;;;;0.40;0.30;;;;;;;10.67;64.38;99570.41;101205;1320;138166;-74
2021/11/21 04:39:04;;;;;;;0.40;0.30;;;;;;;10.63;64.68;99565.09;101234;1318;109777;-75
2021/11/21 04:41:33;;;;;;;0.40;0.30;;;;;;;10.59;64.74;99567.70;101561;1320;95702;-76
2021/11/21 04:44:02;;;;;;;0.40;0.30;;;;;;;10.63;64.79;99569.34;101215;1319;139305;-75
2021/11/21 04:46:31;;;;;;;0.40;0.40;;;;;;;10.64;64.65;99570.55;101169;1324;108663;-76
2021/11/21 04:48:59;;;;;;;0.40;0.40;;;;;;;10.58;64.73;99563.52;101125;1318;139320;-75
2021/11/21 04:51:26;;;;;;;0.40;0.30;;;;;;;10.56;64.86;99563.61;101300;1320;95249;-75
2021/11/21 04:53:54;;;;;;;0.40;0.40;;;;;;;10.59;64.96;99559.58;101273;1320;138733;-75
2021/11/21 04:56:23;;;;;;;0.40;0.30;;;;;;;10.63;64.94;99563.11;101308;1318;107879;-75
2021/11/21 04:58:51;;;;;;;0.40;0.40;;;;;;;10.61;64.80;99561.77;101343;1319;108059;-75
2021/11/21 05:01:19;;;;;;;0.40;0.40;;;;;;;10.57;65.00;99565.48;100959;1318;139619;-76
2021/11/21 05:03:48;;;;;;;0.40;0.30;;;;;;;10.58;64.82;99565.63;101395;1322;96503;-74
2021/11/21 05:06:16;;;;;;;0.40;0.30;;;;;;;10.54;65.01;99568.63;101211;1318;137869;-75
2021/11/21 05:08:43;;;;;;;0.40;0.40;;;;;;;10.52;64.98;99565.34;101207;1318;109707;-74
2021/11/21 05:11:11;;;;;;;0.40;0.40;;;;;;;10.50;65.07;99560.98;101272;1319;95287;-75
2021/11/21 05:13:39;;;;;;;0.40;0.40;;;;;;;10.47;65.10;99559.11;101220;1321;139086;-74
2021/11/21 05:16:07;;;;;;;0.40;0.30;;;;;;;10.43;65.17;99560.35;101224;1319;109084;-76
2021/11/21 05:18:35;;;;;;;0.50;0.40;;;;;;;10.45;65.08;99558.69;101224;1318;139300;-75
2021/11/21 05:21:03;;;;;;;0.40;0.40;;;;;;;10.40;65.03;99556.23;101294;1319;96532;-77
2021/11/21 05:23:31;;;;;;;0.40;0.40;;;;;;;10.39;65.28;99557.14;101297;1320;95191;-76
2021/11/21 05:25:58;;;;;;;0.40;0.40;;;;;;;10.48;65.24;99555.73;101184;1318;138241;-74
2021/11/21 05:28:26;;;;;;;0.40;0.40;;;;;;;10.51;64.95;99547.60;101253;1318;109797;-75
2021/11/21 05:30:54;;;;;;;0.50;0.40;;;;;;;10.47;65.00;99543.89;101061;1321;138954;-75
2021/11/21 05:33:23;;;;;;;0.40;0.40;;;;;;;10.42;64.98;99541.06;101341;1318;95717;-74
2021/11/21 05:35:51;;;;;;;0.40;0.40;;;;;;;10.40;65.20;99541.48;101217;1323;139888;-76
2021/11/21 05:38:19;;;;;;;0.40;0.40;;;;;;;10.40;65.23;99538.11;101444;1320;109766;-76
2021/11/21 05:40:47;;;;;;;0.40;0.40;;;;;;;10.47;65.34;99536.92;101334;1318;96151;-76
2021/11/21 05:43:15;;;;;;;0.40;0.40;;;;;;;10.54;65.31;99537.02;101321;1318;140821;-75
2021/11/21 05:45:43;;;;;;;0.40;0.30;;;;;;;10.55;65.11;99533.45;101303;1320;109805;-74
2021/11/21 05:48:11;;;;;;;0.40;0.40;;;;;;;10.53;65.12;99534.92;101287;1318;140845;-75
2021/11/21 05:50:39;;;;;;;0.40;0.40;;;;;;;10.51;65.30;99532.70;101358;1320;95717;-75
2021/11/21 05:53:07;;;;;;;0.40;0.30;;;;;;;10.46;65.32;99532.39;101242;1319;95254;-74
2021/11/21 05:55:35;;;;;;;0.40;0.30;;;;;;;10.44;65.54;99532.64;101115;1320;139258;-74
2021/11/21 05:58:03;;;;;;;0.40;0.40;;;;;;;10.45;65.65;99536.51;101336;1319;109754;-75
2021/11/21 06:00:31;;;;;;;0.40;0.30;;;;;;;10.44;65.72;99536.38;101043;1320;139504;-75
2021/11/21 06:02:59;;;;;;;0.40;0.40;;;;;;;10.46;65.62;99532.55;101399;1317;95588;-75
2021/11/21 06:05:28;;;;;;;0.40;0.40;;;;;;;10.45;65.67;99532.40;101415;1315;109245;-75
2021/11/21 06:07:56;;;;;;;0.50;0.40;;;;;;;10.47;65.44;99530.94;101240;1317;139009;-74
2021/11/21 06:10:23;;;;;;;0.40;0.30;;;;;;;10.42;65.39;99528.29;101380;1318;95339;-75
2021/11/21 06:12:51;;;;;;;0.40;0.40;;;;;;;10.39;65.64;99525.92;101116;1318;139391;-73
2021/11/21 06:15:19;;;;;;;0.40;0.40;;;;;;;10.37;65.57;99529.34;101274;1318;108929;-75
2021/11/21 06:17:47;;;;;;;0.40;0.40;;;;;;;10.42;65.72;99526.86;101315;1318;107466;-75
2021/11/21 06:20:15;;;;;;;0.40;0.30;;;;;;;10.47;65.56;99524.35;101201;1317;139075;-76
2021/11/21 06:22:42;;;;;;;0.40;0.30;;;;;;;10.46;65.52;99528.98;101333;1318;95291;-75
2021/11/21 06:25:11;;;;;;;0.40;0.40;;;;;;;10.44;65.51;99523.06;101251;1318;138507;-76
2021/11/21 06:27:40;;;;;;;0.50;0.40;;;;;;;10.44;65.54;99523.59;101359;1317;109424;-76
2021/11/21 06:30:08;;;;;;;0.40;0.40;;;;;;;10.39;65.52;99525.92;101172;1318;138430;-76
2021/11/21 06:32:36;;;;;;;0.40;0.40;;;;;;;10.33;65.70;99521.51;101327;1318;95652;-74
2021/11/21 06:35:05;;;;;;;0.40;0.40;;;;;;;10.32;65.98;99520.46;101237;1321;107759;-74
2021/11/21 06:37:33;;;;;;;0.40;0.40;;;;;;;10.40;65.88;99521.05;101126;1319;138536;-76
2021/11/21 06:40:03;;;;;;;0.40;0.30;;;;;;;10.46;65.79;99520.15;101173;1321;95265;-75
2021/11/21 06:42:30;;;;;;;0.40;0.30;;;;;;;10.51;65.59;99525.41;101125;1319;139166;-75
2021/11/21 06:44:58;;;;;;;0.40;0.40;;;;;;;10.54;65.47;99526.04;101324;1318;108949;-74
2021/11/21 06:47:26;;;;;;;0.50;0.40;;;;;;;10.48;65.51;99522.52;101290;1318;109858;-74
2021/11/21 06:49:58;;;;;;;0.50;0.40;;;;;;;10.42;65.51;99517.47;101018;1320;140652;-76
2021/11/21 06:52:26;;;;;;;0.40;0.40;;;;;;;10.41;65.76;99517.67;101377;1318;95316;-75
2021/11/21 06:54:54;;;;;;;0.40;0.30;;;;;;;10.32;65.87;99517.27;101249;1318;138829;-75
2021/11/21 06:57:22;;;;;;;0.40;0.40;;;;;;;10.27;66.26;99515.90;101370;1318;109824;-75
2021/11/21 06:59:49;;;;;;;0.50;0.50;;;;;;;10.31;66.19;99517.33;101212;1321;95814;-76
2021/11/21 07:02:17;;;;;;;0.40;0.40;;;;;;;10.36;66.16;99514.50;101318;1318;138562;-76
2021/11/21 07:04:48;;;;;;;0.40;0.40;;;;;;;10.38;66.05;99517.27;101323;1318;108486;-74
2021/11/21 07:07:19;;;;;;;0.40;0.40;;;;;;;10.35;66.12;99513.45;101243;1319;139198;-75
2021/11/21 07:09:48;;;;;;;0.50;0.40;;;;;;;10.33;66.22;99511.73;101283;1318;95250;-75
2021/11/21 07:12:16;;;;;;;0.50;0.50;;;;;;;10.30;66.18;99508.84;101261;1318;140637;-75
2021/11/21 07:15:05;;;;;;;0.50;0.40;;;;;;;10.25;66.39;99510.81;101257;1318;108378;-72
2021/11/21 07:17:33;;;;;;;0.50;0.40;;;;;;;10.20;66.65;99509.56;101244;1318;109720;-74
2021/11/21 07:20:01;;;;;;;0.40;0.40;;;;;;;10.24;66.63;99510.70;101188;1318;138303;-75
2021/11/21 07:22:29;;;;;;;0.50;0.40;;;;;;;10.28;66.50;99506.08;101321;1316;95305;-75
2021/11/21 07:24:57;;;;;;;0.40;0.40;;;;;;;10.27;66.44;99505.77;101264;1318;138696;-75
2021/11/21 07:27:26;;;;;;;0.40;0.40;;;;;;;10.27;66.46;99508.77;101321;1318;109834;-75
2021/11/21 07:29:54;;;;;;;0.40;0.40;;;;;;;10.29;66.61;99505.86;101268;1321;95734;-75
2021/11/21 07:32:21;;;;;;;0.40;0.40;;;;;;;10.34;66.37;99510.45;101302;1318;138219;-76
2021/11/21 07:34:49;;;;;;;0.40;0.40;;;;;;;10.38;66.37;99513.87;101351;1318;107697;-75
2021/11/21 07:37:17;;;;;;;0.50;0.40;;;;;;;10.37;66.13;99512.48;101148;1319;139940;-75
2021/11/21 07:39:45;;;;;;;0.40;0.40;;;;;;;10.35;66.14;99509.55;101348;1317;95795;-75
2021/11/21 07:42:13;;;;;;;0.50;0.40;;;;;;;10.35;66.41;99507.23;101227;1318;139817;-76
2021/11/21 07:44:41;;;;;;;0.40;0.40;;;;;;;10.44;66.28;99500.48;101339;1318;108212;-75
2021/11/21 07:47:08;;;;;;;0.40;0.40;;;;;;;10.45;66.07;99495.88;101426;1318;109105;-75
2021/11/21 07:49:36;;;;;;;0.40;0.40;;;;;;;10.45;65.87;99495.17;101302;1319;138243;-77
2021/11/21 07:52:04;;;;;;;0.40;0.40;;;;;;;10.39;65.80;99497.69;101377;1318;95665;-76
2021/11/21 07:54:32;;;;;;;0.40;0.30;;;;;;;10.41;65.76;99492.14;101268;1318;138234;-74
2021/11/21 07:57:01;;;;;;;0.40;0.40;;;;;;;10.38;65.67;99489.06;101320;1318;108869;-76
2021/11/21 07:59:29;;;;;;;0.40;0.40;;;;;;;10.35;65.79;99493.05;101174;1321;96059;-75
2021/11/21 08:01:57;;;;;;;0.40;0.40;;;;;;;10.32;65.74;99488.71;101253;1318;140179;-75
2021/11/21 08:04:25;;;;;;;0.40;0.30;;;;;;;10.34;65.66;99488.27;101354;1318;117874;-76
2021/11/21 08:06:53;;;;;;;0.40;0.40;;;;;;;10.33;65.72;99490.27;101216;1318;138171;-76
2021/11/21 08:09:24;;;;;;;0.40;0.40;;;;;;;10.34;65.53;99494.86;101362;1318;95411;-75
2021/11/21 08:11:51;;;;;;;0.50;0.40;;;;;;;10.28;65.58;99496.52;101250;1318;96195;-75
2021/11/21 08:14:19;;;;;;;0.40;0.40;;;;;;;10.30;65.68;99501.73;101212;1318;139335;-76
2021/11/21 08:16:47;;;;;;;0.40;0.40;;;;;;;10.34;65.44;99496.44;101398;1318;109799;-75
2021/11/21 08:19:15;;;;;;;0.50;0.40;;;;;;;10.33;65.46;99501.96;101186;1318;138558;-75
2021/11/21 08:21:43;;;;;;;0.50;0.40;;;;;;;10.29;65.61;99504.81;101340;1318;96481;-75
2021/11/21 08:24:11;;;;;;;0.40;0.40;;;;;;;10.29;65.44;99505.35;101217;1318;140087;-74
2021/11/21 08:26:39;;;;;;;0.40;0.40;;;;;;;10.24;65.36;99504.66;101176;1321;109815;-76
2021/11/21 08:29:07;;;;;;;0.40;0.40;;;;;;;10.22;65.56;99501.01;101315;1318;95847;-76
2021/11/21 08:31:56;;;;;;;0.50;0.40;;;;;;;10.27;65.69;99501.51;101300;1319;139343;-75
2021/11/21 08:34:24;;;;;;;0.40;0.30;;;;;;;10.32;65.50;99494.77;101218;1319;109388;-74
2021/11/21 08:36:52;;;;;;;0.40;0.40;;;;;;;10.34;65.12;99494.48;101097;1318;138343;-75
2021/11/21 08:39:22;;;;;;;0.40;0.40;;;;;;;10.35;65.33;99493.58;101271;1317;95208;-74
2021/11/21 08:41:51;;;;;;;0.40;0.40;;;;;;;10.35;65.16;99490.04;101395;1318;95066;-75
2021/11/21 08:44:20;;;;;;;0.40;0.40;;;;;;;10.36;65.03;99487.86;101261;1318;137937;-75
2021/11/21 08:46:48;;;;;;;0.40;0.30;;;;;;;10.44;65.02;99484.91;101253;1318;109975;-75
2021/11/21 08:49:17;;;;;;;0.40;0.30;;;;;;;10.45;64.52;99479.34;101355;1319;138991;-76
2021/11/21 08:51:45;;;;;;;0.50;0.40;;;;;;;10.44;64.88;99477.63;101291;1320;96203;-76
2021/11/21 08:54:15;;;;;;;0.40;0.40;;;;;;;10.52;64.76;99478.73;101251;1318;138615;-75
2021/11/21 08:56:47;;;;;;;0.40;0.40;;;;;;;10.61;64.32;99479.42;101373;1318;108802;-76
2021/11/21 08:59:16;;;;;;;0.40;0.40;;;;;;;10.60;64.26;99482.65;101393;1318;96020;-76
2021/11/21 09:01:44;;;;;;;0.40;0.40;;;;;;;10.66;64.18;99481.54;101235;1321;136914;-75
2021/11/21 09:04:13;;;;;;;0.40;0.40;;;;;;;10.64;64.00;99481.44;101354;1318;107965;-75
2021/11/21 09:06:43;;;;;;;0.40;0.40;;;;;;;10.61;63.84;99482.11;101322;1318;139327;-75
2021/11/21 09:09:13;;;;;;;0.40;0.40;;;;;;;10.64;63.85;99479.30;101564;1318;95550;-76
2021/11/21 09:11:42;;;;;;;0.40;0.30;;;;;;;10.71;63.76;99481.33;101299;1321;95794;-75
2021/11/21 09:14:10;;;;;;;0.40;0.30;;;;;;;10.70;63.56;99485.44;101237;1318;138171;-73
2021/11/21 09:16:38;;;;;;;0.40;0.30;;;;;;;10.67;63.51;99483.58;101572;1318;110432;-73
2021/11/21 09:19:06;;;;;;;0.40;0.30;;;;;;;10.67;63.54;99487.30;101177;1319;139531;-77
2021/11/21 09:21:35;;;;;;;0.40;0.30;;;;;;;10.69;63.58;99480.50;101369;1318;96126;-75
2021/11/21 09:24:03;;;;;;;0.40;0.30;;;;;;;10.70;63.39;99475.50;101327;1317;138412;-74
2021/11/21 09:26:31;;;;;;;0.40;0.30;;;;;;;10.71;63.42;99474.73;101344;1318;110333;-75
2021/11/21 09:28:59;;;;;;;0.40;0.30;;;;;;;10.73;63.40;99472.73;101405;1318;96175;-74
2021/11/21 09:31:27;;;;;;;0.40;0.30;;;;;;;10.82;63.33;99470.73;101294;1318;138493;-76
2021/11/21 09:33:55;;;;;;;0.40;0.40;;;;;;;10.93;63.31;99470.27;101364;1318;108566;-76
2021/11/21 09:36:23;;;;;;;0.40;0.30;;;;;;;10.98;63.04;99471.46;101368;1318;138427;-74
2021/11/21 09:38:51;;;;;;;0.40;0.30;;;;;;;10.95;62.78;99476.41;101354;1318;96865;-74
2021/11/21 09:41:19;;;;;;;0.40;0.30;;;;;;;10.96;62.94;99475.30;101365;1317;95867;-76
2021/11/21 09:43:47;;;;;;;0.40;0.30;;;;;;;11.04;62.82;99476.18;101274;1318;139065;-76
2021/11/21 09:46:17;;;;;;;0.40;0.30;;;;;;;11.03;62.59;99473.21;101366;1319;110109;-76
2021/11/21 09:48:45;;;;;;;0.40;0.40;;;;;;;10.99;62.62;99471.23;101303;1317;138542;-76
2021/11/21 09:51:14;;;;;;;0.40;0.30;;;;;;;10.99;62.51;99468.25;101248;1318;95374;-75
2021/11/21 09:53:42;;;;;;;0.40;0.30;;;;;;;10.92;62.39;99463.04;101433;1318;109206;-76
2021/11/21 09:56:10;;;;;;;0.40;0.30;;;;;;;10.91;62.70;99457.59;101181;1318;138081;-75
2021/11/21 09:58:38;;;;;;;0.40;0.30;;;;;;;10.93;62.93;99450.40;101430;1318;95741;-76
2021/11/21 10:01:06;;;;;;;0.40;0.30;;;;;;;10.97;62.73;99448.42;101089;1318;138054;-76
2021/11/21 10:03:45;;;;;;;0.40;0.30;;;;;;;10.94;62.53;99449.79;101214;1322;108473;-76
2021/11/21 10:06:29;;;;;;;0.40;0.30;;;;;;;10.84;62.53;99450.55;101292;1318;138268;-75
2021/11/21 10:08:56;;;;;;;0.40;0.30;;;;;;;10.78;62.86;99447.81;101448;1318;95247;-75
2021/11/21 10:11:24;;;;;;;0.40;0.30;;;;;;;10.75;62.90;99446.35;101233;1318;95299;-75
2021/11/21 10:13:54;;;;;;;0.40;0.30;;;;;;;10.75;63.11;99447.08;101234;1318;140196;-75
2021/11/21 10:16:31;;;;;;;0.40;0.30;;;;;;;10.75;62.96;99442.79;101335;1321;110734;-77
2021/11/21 10:18:59;;;;;;;0.40;0.30;;;;;;;10.81;63.15;99440.56;101499;1318;139323;-76
2021/11/21 10:21:30;;;;;;;0.40;0.30;;;;;;;10.77;62.79;99442.72;101335;1318;95290;-76
2021/11/21 10:24:15;;;;;;;0.40;0.30;;;;;;;10.75;62.90;99442.80;101239;1320;108923;-75
2021/11/21 10:26:43;;;;;;;0.40;0.30;;;;;;;10.80;63.14;99442.75;101296;1318;139928;-76
2021/11/21 10:29:32;;;;;;;0.40;0.30;;;;;;;10.88;63.03;99441.16;101227;1321;95673;-75
2021/11/21 10:32:16;;;;;;;0.40;0.30;;;;;;;10.93;62.73;99442.02;101107;1320;137951;-75
2021/11/21 10:34:55;;;;;;;0.40;0.30;;;;;;;10.88;62.60;99442.76;101297;1318;108976;-76
2021/11/21 10:37:37;;;;;;;0.40;0.30;;;;;;;10.94;62.80;99439.71;101262;1318;140307;-75
2021/11/21 10:40:15;;;;;;;0.40;0.30;;;;;;;11.02;62.69;99442.37;101331;1318;95313;-75
2021/11/21 10:42:45;;;;;;;0.40;0.30;;;;;;;11.10;62.67;99440.41;101191;1318;138956;-75
2021/11/21 10:45:21;;;;;;;0.40;0.30;;;;;;;11.07;62.15;99437.88;101132;1321;108883;-75
2021/11/21 10:47:56;;;;;;;0.40;0.30;;;;;;;10.98;62.33;99437.20;101370;1318;107442;-75
2021/11/21 10:50:39;;;;;;;0.40;0.30;;;;;;;11.00;62.39;99434.98;101274;1318;139032;-76
2021/11/21 10:53:09;;;;;;;0.40;0.40;;;;;;;11.00;62.26;99439.95;101337;1318;95463;-74
2021/11/21 10:55:39;;;;;;;0.40;0.30;;;;;;;10.98;62.26;99440.40;101415;1318;139667;-75
2021/11/21 10:58:14;;;;;;;0.40;0.30;;;;;;;10.94;62.37;99434.52;101337;1318;110773;-75
2021/11/21 11:00:44;;;;;;;0.40;0.30;;;;;;;10.93;62.33;99437.05;101259;1314;138556;-75
2021/11/21 11:03:21;;;;;;;0.40;0.30;;;;;;;10.93;62.14;99437.23;101293;1321;95954;-75
2021/11/21 11:05:48;;;;;;;0.40;0.30;;;;;;;10.88;62.15;99441.20;101004;1321;108885;-74
2021/11/21 11:08:31;;;;;;;0.40;0.30;;;;;;;10.86;62.36;99435.59;101238;1318;139299;-75
2021/11/21 11:11:00;;;;;;;0.40;0.30;;;;;;;10.82;62.55;99431.82;101348;1321;95274;-75
2021/11/21 11:13:30;;;;;;;0.40;0.30;;;;;;;10.85;62.48;99435.44;101262;1319;137599;-74
2021/11/21 11:15:58;;;;;;;0.40;0.30;;;;;;;10.83;62.20;99431.27;101297;1318;107888;-75
2021/11/21 11:18:27;;;;;;;0.40;0.30;;;;;;;10.80;62.27;99437.27;101176;1318;139488;-74
2021/11/21 11:20:57;;;;;;;0.40;0.40;;;;;;;10.68;62.28;99431.16;101344;1318;95248;-76
2021/11/21 11:23:26;;;;;;;0.40;0.30;;;;;;;10.68;62.67;99432.09;101391;1318;95259;-75
2021/11/21 11:25:57;;;;;;;0.50;0.40;;;;;;;10.68;62.65;99433.34;101158;1325;140463;-74
2021/11/21 11:28:38;;;;;;;0.40;0.30;;;;;;;10.72;62.61;99429.23;101429;1318;108991;-75
2021/11/21 11:31:27;;;;;;;0.40;0.30;;;;;;;10.72;62.45;99427.99;101243;1318;137959;-77